createdAt,value
2019-05-15T00:02:24.349Z,8.40
2019-05-15T00:04:54.809Z,8.30
2019-05-15T00:07:25.186Z,8.40
2019-05-15T00:09:55.540Z,8.40
2019-05-15T00:12:28.286Z,8.40
2019-05-15T00:14:58.186Z,8.50
2019-05-15T00:17:28.602Z,8.50
2019-05-15T00:19:58.861Z,8.40
2019-05-15T00:22:29.288Z,8.40
2019-05-15T00:24:59.637Z,8.40
2019-05-15T00:27:29.905Z,8.30
2019-05-15T00:30:00.284Z,8.40
2019-05-15T00:32:30.818Z,8.40
2019-05-15T00:35:01.052Z,8.50
2019-05-15T00:37:38.717Z,8.50
2019-05-15T00:40:09.311Z,8.60
2019-05-15T00:42:39.693Z,8.60
2019-05-15T00:45:11.337Z,8.60
2019-05-15T00:47:41.757Z,8.60
2019-05-15T00:50:13.173Z,8.60
2019-05-15T00:52:43.597Z,8.60
2019-05-15T00:55:14.461Z,8.70
2019-05-15T00:57:44.728Z,8.70
2019-05-15T01:00:18.652Z,8.70
2019-05-15T01:02:48.780Z,8.60
2019-05-15T01:05:19.074Z,8.60
2019-05-15T01:07:49.405Z,8.40
2019-05-15T01:10:19.769Z,8.40
2019-05-15T01:12:50.141Z,8.30
2019-05-15T01:15:20.562Z,8.20
2019-05-15T01:17:50.821Z,8.10
2019-05-15T01:20:21.185Z,8.10
2019-05-15T01:22:51.514Z,8.10
2019-05-15T01:25:22.049Z,8.00
2019-05-15T01:27:52.486Z,7.90
2019-05-15T01:30:22.953Z,7.80
2019-05-15T01:32:53.459Z,8.00
2019-05-15T01:35:23.809Z,8.00
2019-05-15T01:37:54.150Z,7.90
2019-05-15T01:40:24.590Z,7.80
2019-05-15T01:42:54.901Z,7.80
2019-05-15T01:45:25.225Z,7.70
2019-05-15T01:47:55.496Z,7.80
2019-05-15T01:50:25.805Z,7.80
2019-05-15T01:52:56.062Z,7.80
2019-05-15T01:55:28.451Z,7.80
2019-05-15T01:57:59.073Z,7.90
2019-05-15T02:00:29.502Z,7.80
2019-05-15T02:03:00.233Z,7.90
2019-05-15T02:05:33.201Z,7.80
2019-05-15T02:08:04.610Z,7.80
2019-05-15T02:10:34.966Z,7.70
2019-05-15T02:13:10.741Z,7.50
2019-05-15T02:15:43.513Z,7.50
2019-05-15T02:18:13.777Z,7.50
2019-05-15T02:20:44.441Z,7.50
2019-05-15T02:23:14.780Z,7.40
2019-05-15T02:25:45.079Z,7.40
2019-05-15T02:28:15.326Z,7.50
2019-05-15T02:30:45.681Z,7.50
2019-05-15T02:33:18.651Z,7.40
2019-05-15T02:35:50.168Z,7.40
2019-05-15T02:38:20.359Z,7.40
2019-05-15T02:40:50.895Z,7.30
2019-05-15T02:43:21.509Z,7.20
2019-05-15T02:45:51.965Z,7.10
2019-05-15T02:48:22.842Z,7.10
2019-05-15T02:50:53.253Z,7.10
2019-05-15T02:53:23.621Z,7.20
2019-05-15T02:55:55.031Z,7.00
2019-05-15T02:58:25.401Z,7.00
2019-05-15T03:00:58.906Z,7.00
2019-05-15T03:03:29.539Z,7.00
2019-05-15T03:06:00.509Z,6.90
2019-05-15T03:08:31.015Z,6.90
2019-05-15T03:11:01.632Z,6.90
2019-05-15T03:13:32.069Z,6.80
2019-05-15T03:16:03.710Z,6.80
2019-05-15T03:18:34.294Z,6.60
2019-05-15T03:21:04.698Z,6.60
2019-05-15T03:23:35.126Z,6.60
2019-05-15T03:26:08.620Z,6.50
2019-05-15T03:28:39.511Z,6.50
2019-05-15T03:31:32.684Z,6.50
2019-05-15T03:33:45.540Z,6.40
2019-05-15T03:36:14.455Z,6.50
2019-05-15T03:38:45.762Z,6.40
2019-05-15T03:41:19.448Z,6.40
2019-05-15T03:43:49.739Z,6.40
2019-05-15T03:46:20.347Z,6.40
2019-05-15T03:48:51.665Z,6.40
2019-05-15T03:51:22.105Z,6.40
2019-05-15T03:53:52.564Z,6.40
2019-05-15T03:56:23.025Z,6.50
2019-05-15T03:58:53.453Z,6.50
2019-05-15T04:01:43.775Z,6.50
2019-05-15T04:04:14.600Z,6.50
2019-05-15T04:06:45.002Z,6.50
2019-05-15T04:09:18.716Z,6.40
2019-05-15T04:11:49.761Z,6.40
2019-05-15T04:14:19.619Z,6.50
2019-05-15T04:16:50.067Z,6.50
2019-05-15T04:19:20.493Z,6.60
2019-05-15T04:21:50.916Z,6.60
2019-05-15T04:24:21.483Z,6.60
2019-05-15T04:26:52.599Z,6.70
2019-05-15T04:29:22.959Z,6.80
2019-05-15T04:32:01.037Z,6.90
2019-05-15T04:34:25.385Z,6.80
2019-05-15T04:36:58.559Z,6.90
2019-05-15T04:39:29.563Z,7.00
2019-05-15T04:41:59.685Z,7.10
2019-05-15T04:44:30.175Z,7.10
2019-05-15T04:47:00.522Z,7.20
2019-05-15T04:49:31.242Z,7.30
2019-05-15T04:52:03.631Z,7.30
2019-05-15T04:54:33.656Z,7.40
2019-05-15T04:57:05.375Z,7.50
2019-05-15T04:59:38.705Z,7.40
2019-05-15T05:02:19.458Z,7.40
2019-05-15T05:04:40.042Z,7.50
2019-05-15T05:07:11.842Z,7.60
2019-05-15T05:09:43.321Z,7.70
2019-05-15T05:12:13.755Z,7.80
2019-05-15T05:14:44.286Z,7.90
2019-05-15T05:17:14.647Z,7.90
2019-05-15T05:19:45.055Z,8.00
2019-05-15T05:22:15.422Z,8.10
2019-05-15T05:24:47.719Z,8.10
2019-05-15T05:27:18.276Z,8.20
2019-05-15T05:29:48.830Z,8.20
2019-05-15T05:32:31.390Z,8.20
2019-05-15T05:34:51.307Z,8.30
2019-05-15T05:37:21.733Z,8.40
2019-05-15T05:39:52.093Z,8.30
2019-05-15T05:42:22.544Z,8.40
2019-05-15T05:44:52.831Z,8.50
2019-05-15T05:47:23.178Z,8.50
2019-05-15T05:49:53.705Z,8.50
2019-05-15T05:52:24.138Z,8.60
2019-05-15T05:54:54.494Z,8.70
2019-05-15T05:57:24.814Z,8.80
2019-05-15T05:59:55.222Z,8.80
2019-05-15T06:02:28.036Z,8.90
2019-05-15T06:04:58.604Z,8.90
2019-05-15T06:07:29.081Z,9.00
2019-05-15T06:09:59.486Z,9.10
2019-05-15T06:12:29.930Z,9.10
2019-05-15T06:15:00.174Z,9.20
2019-05-15T06:17:32.768Z,9.40
2019-05-15T06:20:03.162Z,9.40
2019-05-15T06:22:33.531Z,9.50
2019-05-15T06:25:05.337Z,9.60
2019-05-15T06:27:35.774Z,9.80
2019-05-15T06:30:08.624Z,9.80
2019-05-15T06:32:39.943Z,10.50
2019-05-15T06:35:11.242Z,11.40
2019-05-15T06:37:41.864Z,12.20
2019-05-15T06:40:12.291Z,13.20
2019-05-15T06:42:42.642Z,13.70
2019-05-15T06:45:13.370Z,14.60
2019-05-15T06:47:44.348Z,14.90
2019-05-15T06:50:18.011Z,15.20
2019-05-15T06:52:48.650Z,15.50
2019-05-15T06:55:20.055Z,15.40
2019-05-15T06:57:50.320Z,15.50
2019-05-15T07:00:20.770Z,15.70
2019-05-15T07:02:51.220Z,16.00
2019-05-15T07:05:21.659Z,16.20
2019-05-15T07:07:52.005Z,16.40
2019-05-15T07:10:22.526Z,16.70
2019-05-15T07:12:52.850Z,16.70
2019-05-15T07:15:24.096Z,16.90
2019-05-15T07:17:54.534Z,16.80
2019-05-15T07:20:24.959Z,16.90
2019-05-15T07:22:58.640Z,16.80
2019-05-15T07:25:29.462Z,16.50
2019-05-15T07:28:01.007Z,16.30
2019-05-15T07:30:31.598Z,16.60
2019-05-15T07:33:02.531Z,16.50
2019-05-15T07:35:32.882Z,16.60
2019-05-15T07:38:03.187Z,16.50
2019-05-15T07:40:33.602Z,16.50
2019-05-15T07:43:04.150Z,16.60
2019-05-15T07:45:34.595Z,16.80
2019-05-15T07:48:05.596Z,16.40
2019-05-15T07:50:38.454Z,16.10
2019-05-15T07:53:12.999Z,16.10
2019-05-15T07:55:43.288Z,16.10
2019-05-15T07:58:13.600Z,16.40
2019-05-15T08:00:44.079Z,16.60
2019-05-15T08:03:14.549Z,16.80
2019-05-15T08:05:58.038Z,17.20
2019-05-15T08:08:18.468Z,17.10
2019-05-15T08:10:49.344Z,17.10
2019-05-15T08:13:19.816Z,17.10
2019-05-15T08:15:50.192Z,16.80
2019-05-15T08:18:20.544Z,17.30
2019-05-15T08:20:51.098Z,17.20
2019-05-15T08:23:21.508Z,17.40
2019-05-15T08:25:52.015Z,17.70
2019-05-15T08:28:22.387Z,17.40
2019-05-15T08:30:52.762Z,17.10
2019-05-15T08:33:23.075Z,17.10
2019-05-15T08:35:53.435Z,17.30
2019-05-15T08:38:23.932Z,17.50
2019-05-15T08:40:54.436Z,17.50
2019-05-15T08:43:24.881Z,17.50
2019-05-15T08:45:55.323Z,17.60
2019-05-15T08:48:27.680Z,18.30
2019-05-15T08:50:58.026Z,18.10
2019-05-15T08:53:28.898Z,17.50
2019-05-15T08:56:00.439Z,17.20
2019-05-15T08:58:30.855Z,17.40
2019-05-15T09:01:01.338Z,17.40
2019-05-15T09:03:32.799Z,17.20
2019-05-15T09:06:03.207Z,17.40
2019-05-15T09:08:33.507Z,17.60
2019-05-15T09:11:09.646Z,17.60
2019-05-15T09:13:43.154Z,17.50
2019-05-15T09:16:12.271Z,17.10
2019-05-15T09:18:42.611Z,17.50
2019-05-15T09:21:13.052Z,17.50
2019-05-15T09:23:43.403Z,17.60
2019-05-15T09:26:13.752Z,17.50
2019-05-15T09:28:44.116Z,17.40
2019-05-15T09:31:22.188Z,17.60
2019-05-15T09:33:52.544Z,17.50
2019-05-15T09:36:22.987Z,17.60
2019-05-15T09:38:53.471Z,17.80
2019-05-15T09:41:23.923Z,17.80
2019-05-15T09:43:57.759Z,17.80
2019-05-15T09:46:29.148Z,17.70
2019-05-15T09:48:59.777Z,17.90
2019-05-15T09:51:30.224Z,17.80
2019-05-15T09:54:00.690Z,18.00
2019-05-15T09:56:31.544Z,18.00
2019-05-15T09:59:01.944Z,17.60
2019-05-15T10:01:32.313Z,17.10
2019-05-15T10:04:05.277Z,17.60
2019-05-15T10:06:35.739Z,17.80
2019-05-15T10:09:09.077Z,17.60
2019-05-15T10:11:39.348Z,17.90
2019-05-15T10:14:10.049Z,17.50
2019-05-15T10:16:40.516Z,17.20
2019-05-15T10:19:10.896Z,17.20
2019-05-15T10:21:41.308Z,17.50
2019-05-15T10:24:11.756Z,17.60
2019-05-15T10:26:42.180Z,17.30
2019-05-15T10:29:12.604Z,17.00
2019-05-15T10:31:42.984Z,17.40
2019-05-15T10:34:13.299Z,17.60
2019-05-15T10:36:43.737Z,17.20
2019-05-15T10:39:14.253Z,17.40
2019-05-15T10:41:44.616Z,17.50
2019-05-15T10:44:15.044Z,17.60
2019-05-15T10:46:48.066Z,17.30
2019-05-15T10:49:18.970Z,17.20
2019-05-15T10:51:49.528Z,17.20
2019-05-15T10:54:19.976Z,16.80
2019-05-15T10:56:50.668Z,17.00
2019-05-15T10:59:21.152Z,16.80
2019-05-15T11:01:51.510Z,16.70
2019-05-15T11:04:21.940Z,16.70
2019-05-15T11:06:52.397Z,17.00
2019-05-15T11:09:22.907Z,17.30
2019-05-15T11:11:53.258Z,17.40
2019-05-15T11:14:23.757Z,17.20
2019-05-15T11:16:54.045Z,17.10
2019-05-15T11:19:24.415Z,17.00
2019-05-15T11:21:54.820Z,16.80
2019-05-15T11:24:25.240Z,17.10
2019-05-15T11:26:56.223Z,16.80
2019-05-15T11:29:26.940Z,16.70
2019-05-15T11:31:58.080Z,16.40
2019-05-15T11:34:29.142Z,16.30
2019-05-15T11:36:59.749Z,16.60
2019-05-15T11:39:31.167Z,16.30
2019-05-15T11:42:01.464Z,16.60
2019-05-15T11:44:32.436Z,16.40
2019-05-15T11:47:04.025Z,16.40
2019-05-15T11:49:34.516Z,16.30
2019-05-15T11:52:04.967Z,16.50
2019-05-15T11:54:35.341Z,16.50
2019-05-15T11:57:08.630Z,16.40
2019-05-15T11:59:45.076Z,16.40
2019-05-15T12:02:11.078Z,16.40
2019-05-15T12:04:41.467Z,16.40
2019-05-15T12:07:11.880Z,16.40
2019-05-15T12:09:42.301Z,16.30
2019-05-15T12:12:12.699Z,16.40
2019-05-15T12:14:43.052Z,16.40
2019-05-15T12:17:15.575Z,16.50
2019-05-15T12:19:55.119Z,16.50
2019-05-15T12:22:17.564Z,16.40
2019-05-15T12:24:49.892Z,16.30
2019-05-15T12:27:20.068Z,16.20
2019-05-15T12:29:50.346Z,16.10
2019-05-15T12:32:28.703Z,16.10
2019-05-15T12:34:52.844Z,16.20
2019-05-15T12:37:23.273Z,16.30
2019-05-15T13:00:13.145Z,16.50
2019-05-15T13:02:43.488Z,16.50
2019-05-15T13:05:13.905Z,16.40
2019-05-15T13:07:44.292Z,16.50
2019-05-15T13:10:18.222Z,16.50
2019-05-15T13:13:00.819Z,16.60
2019-05-15T13:15:20.563Z,16.50
2019-05-15T13:17:52.773Z,16.40
2019-05-15T13:20:23.196Z,16.40
2019-05-15T13:22:53.604Z,16.50
2019-05-15T13:25:24.040Z,16.50
2019-05-15T13:27:54.513Z,16.60
2019-05-15T13:30:25.444Z,16.40
2019-05-15T13:32:58.589Z,16.50
2019-05-15T13:35:28.461Z,16.30
2019-05-15T13:37:58.990Z,16.40
2019-05-15T13:40:37.727Z,16.50
2019-05-15T13:43:01.484Z,16.40
2019-05-15T13:45:31.913Z,16.40
2019-05-15T13:48:02.281Z,16.50
2019-05-15T13:50:33.783Z,16.60
2019-05-15T13:53:04.276Z,16.40
2019-05-15T13:55:36.981Z,16.50
2019-05-15T13:58:08.675Z,16.40
2019-05-15T14:00:39.547Z,16.40
2019-05-15T14:03:10.187Z,16.50
2019-05-15T14:05:40.789Z,16.60
2019-05-15T14:08:11.222Z,16.60
2019-05-15T14:10:41.628Z,16.70
2019-05-15T14:13:12.010Z,16.60
2019-05-15T14:15:42.404Z,16.50
2019-05-15T14:18:14.173Z,16.40
2019-05-15T14:20:44.593Z,16.40
2019-05-15T14:23:15.029Z,16.40
2019-05-15T14:25:48.058Z,16.50
2019-05-15T14:28:18.928Z,16.40
2019-05-15T14:30:49.573Z,16.50
2019-05-15T14:33:19.978Z,16.50
2019-05-15T14:35:50.338Z,16.60
2019-05-15T14:38:20.733Z,16.50
2019-05-15T14:40:51.082Z,16.50
2019-05-15T14:43:21.532Z,16.40
2019-05-15T14:45:51.990Z,16.40
2019-05-15T14:48:22.636Z,16.50
2019-05-15T14:50:52.913Z,16.60
2019-05-15T14:53:23.354Z,16.50
2019-05-15T14:55:53.690Z,16.50
2019-05-15T14:58:24.017Z,16.50
2019-05-15T15:00:54.898Z,16.50
2019-05-15T15:03:25.420Z,16.40
2019-05-15T15:05:58.027Z,16.40
2019-05-15T15:08:29.198Z,16.40
2019-05-15T15:11:00.158Z,16.50
2019-05-15T15:13:30.992Z,16.40
2019-05-15T15:16:01.345Z,16.40
2019-05-15T15:18:31.741Z,16.40
2019-05-15T15:21:02.521Z,16.40
2019-05-15T15:23:32.936Z,16.40
2019-05-15T15:26:03.342Z,16.40
2019-05-15T15:28:33.682Z,16.40
2019-05-15T15:31:04.077Z,16.50
2019-05-15T15:33:34.415Z,16.40
2019-05-15T15:36:04.878Z,16.50
2019-05-15T15:38:40.875Z,16.50
2019-05-15T15:41:08.588Z,16.50
2019-05-15T15:43:39.105Z,16.40
2019-05-15T15:46:09.554Z,16.40
2019-05-15T15:48:40.008Z,16.50
2019-05-15T15:51:10.415Z,16.40
2019-05-15T15:53:40.873Z,16.50
2019-05-15T15:56:11.337Z,16.30
2019-05-15T15:58:41.693Z,16.30
2019-05-15T16:01:12.103Z,16.30
2019-05-15T16:03:42.566Z,16.20
2019-05-15T16:06:13.013Z,16.20
2019-05-15T16:08:53.188Z,16.30
2019-05-15T16:11:15.813Z,16.30
2019-05-15T16:13:46.564Z,16.30
2019-05-15T16:16:18.281Z,16.40
2019-05-15T16:18:49.164Z,16.40
2019-05-15T16:21:19.866Z,16.40
2019-05-15T16:23:51.154Z,16.30
2019-05-15T16:26:21.533Z,16.20
2019-05-15T16:28:51.947Z,16.20
2019-05-15T16:31:22.329Z,16.20
2019-05-15T16:33:52.634Z,16.20
2019-05-15T16:36:23.277Z,16.20
2019-05-15T16:39:05.050Z,16.20
2019-05-15T16:41:25.733Z,16.30
2019-05-15T16:43:57.833Z,16.30
2019-05-15T16:46:28.346Z,16.30
2019-05-15T16:48:59.085Z,16.30
2019-05-15T16:51:32.180Z,16.40
2019-05-15T16:56:39.981Z,16.40
2019-05-15T16:59:09.576Z,16.30
2019-05-15T17:01:40.310Z,16.10
2019-05-15T17:04:10.797Z,15.80
2019-05-15T17:06:41.081Z,15.70
2019-05-15T17:09:21.032Z,15.60
2019-05-15T17:11:43.629Z,15.60
2019-05-15T17:14:13.994Z,15.50
2019-05-15T17:16:44.613Z,15.50
2019-05-15T17:19:14.966Z,15.50
2019-05-15T17:21:48.007Z,15.60
2019-05-15T17:24:17.516Z,15.70
2019-05-15T17:26:48.850Z,15.80
2019-05-15T17:29:20.178Z,16.00
2019-05-15T17:31:50.601Z,16.00
2019-05-15T17:34:20.884Z,16.00
2019-05-15T17:36:51.230Z,15.90
2019-05-15T17:39:33.622Z,15.80
2019-05-15T17:41:53.738Z,15.70
2019-05-15T17:44:24.542Z,15.70
2019-05-15T17:46:54.945Z,15.60
2019-05-15T17:49:25.302Z,15.60
2019-05-15T17:51:55.657Z,15.50
2019-05-15T17:54:26.071Z,15.50
2019-05-15T17:56:58.438Z,15.50
2019-05-15T17:59:28.786Z,15.40
2019-05-15T18:01:59.637Z,15.30
2019-05-15T18:04:30.132Z,15.20
2019-05-15T18:07:00.498Z,15.30
2019-05-15T18:09:30.878Z,15.30
2019-05-15T18:14:42.294Z,15.10
2019-05-15T18:17:12.715Z,15.10
2019-05-15T18:19:43.254Z,15.00
2019-05-15T18:22:13.686Z,15.00
2019-05-15T18:24:44.046Z,15.00
2019-05-15T18:27:14.417Z,14.90
2019-05-15T18:29:45.216Z,14.80
2019-05-15T18:32:18.768Z,14.80
2019-05-15T18:34:48.900Z,14.80
2019-05-15T18:37:19.382Z,14.70
2019-05-15T18:40:02.159Z,14.60
2019-05-15T18:42:22.474Z,14.50
2019-05-15T18:44:52.787Z,14.40
2019-05-15T18:47:23.165Z,14.40
2019-05-15T18:50:05.781Z,14.20
2019-05-15T18:52:25.491Z,14.10
2019-05-15T18:54:58.314Z,14.10
2019-05-15T18:57:28.234Z,13.90
2019-05-15T18:59:58.598Z,13.90
2019-05-15T19:02:29.064Z,13.80
2019-05-15T19:04:59.442Z,13.80
2019-05-15T19:07:29.786Z,13.70
2019-05-15T19:10:00.250Z,13.60
2019-05-15T19:12:30.687Z,13.60
2019-05-15T19:15:01.506Z,13.40
2019-05-15T19:17:31.951Z,13.30
2019-05-15T19:20:02.341Z,13.10
2019-05-15T19:22:32.759Z,13.00
2019-05-15T19:25:03.240Z,12.90
2019-05-15T19:27:33.738Z,12.90
2019-05-15T19:30:04.856Z,12.90
2019-05-15T19:32:35.566Z,13.00
2019-05-15T19:35:14.251Z,12.90
2019-05-15T19:37:44.542Z,12.80
2019-05-15T19:40:15.434Z,12.80
2019-05-15T19:42:45.930Z,12.60
2019-05-15T19:45:16.359Z,12.50
2019-05-15T19:47:47.816Z,12.40
2019-05-15T19:50:19.435Z,12.40
2019-05-15T19:52:49.887Z,12.30
2019-05-15T19:55:21.103Z,12.20
2019-05-15T19:57:51.575Z,12.10
2019-05-15T20:00:22.087Z,12.10
2019-05-15T20:02:52.564Z,12.00
2019-05-15T20:05:23.034Z,12.00
2019-05-15T20:07:53.471Z,12.00
2019-05-15T20:10:25.035Z,11.80
2019-05-15T20:12:55.327Z,11.60
2019-05-15T20:15:25.771Z,11.50
2019-05-15T20:17:56.891Z,11.50
2019-05-15T20:20:28.344Z,11.40
2019-05-15T20:23:00.528Z,11.40
2019-05-15T20:25:32.272Z,11.40
2019-05-15T20:28:03.043Z,11.40
2019-05-15T20:30:33.504Z,11.40
2019-05-15T20:33:04.017Z,11.50
2019-05-15T20:35:34.992Z,11.40
2019-05-15T20:38:05.494Z,11.40
2019-05-15T20:40:36.039Z,11.40
2019-05-15T20:43:08.199Z,11.60
2019-05-15T20:45:38.483Z,11.50
2019-05-15T20:48:09.047Z,11.50
2019-05-15T20:50:40.119Z,11.60
2019-05-15T20:53:10.931Z,11.60
2019-05-15T20:55:41.359Z,11.60
2019-05-15T20:58:11.679Z,11.50
2019-05-15T21:00:42.158Z,11.50
2019-05-15T21:03:12.551Z,11.40
2019-05-15T21:05:43.303Z,11.40
2019-05-15T21:08:13.748Z,11.30
2019-05-15T21:10:44.212Z,11.30
2019-05-15T21:13:14.503Z,11.20
2019-05-15T21:15:47.879Z,11.10
2019-05-15T21:18:19.522Z,11.00
2019-05-15T21:20:49.939Z,11.00
2019-05-15T21:23:23.983Z,10.90
2019-05-15T21:25:54.336Z,10.80
2019-05-15T21:28:24.774Z,10.80
2019-05-15T21:30:55.061Z,10.80
2019-05-15T21:33:25.487Z,10.90
2019-05-15T21:35:58.222Z,10.80
2019-05-15T21:38:28.500Z,10.70
2019-05-15T21:40:58.996Z,10.60
2019-05-15T21:43:29.371Z,10.60
2019-05-15T21:45:59.795Z,10.60
2019-05-15T21:48:30.144Z,10.50
2019-05-15T21:51:00.664Z,10.50
2019-05-15T21:53:31.022Z,10.50
2019-05-15T21:56:01.445Z,10.40
2019-05-15T21:58:31.886Z,10.40
2019-05-15T22:01:02.539Z,10.30
2019-05-15T22:03:34.683Z,10.40
2019-05-15T22:06:05.311Z,10.40
2019-05-15T22:08:38.450Z,10.30
2019-05-15T22:11:09.072Z,10.30
2019-05-15T22:13:39.621Z,10.40
2019-05-15T22:22:25.770Z,10.60
2019-05-15T22:24:56.295Z,10.70
2019-05-15T22:27:28.495Z,10.80
2019-05-15T22:29:58.875Z,11.00
2019-05-15T22:32:29.593Z,11.10
2019-05-15T22:37:43.566Z,11.20
2019-05-15T22:43:19.553Z,11.40
2019-05-15T22:45:50.969Z,11.40
2019-05-15T22:48:22.522Z,11.30
2019-05-15T22:50:52.867Z,11.30
2019-05-15T22:53:23.734Z,11.30
2019-05-15T22:55:55.210Z,11.30
2019-05-15T22:58:25.508Z,11.30
2019-05-15T23:00:55.838Z,11.30
2019-05-15T23:03:28.243Z,11.30
2019-05-15T23:05:59.502Z,11.20
2019-05-15T23:08:29.842Z,11.20
2019-05-15T23:11:00.207Z,11.10
2019-05-15T23:13:30.675Z,11.10
2019-05-15T23:16:05.499Z,11.10
2019-05-15T23:19:12.673Z,11.00
2019-05-15T23:21:48.645Z,11.00
2019-05-15T23:24:20.238Z,10.90
2019-05-15T23:26:50.706Z,10.80
2019-05-15T23:29:25.447Z,10.80
2019-05-15T23:31:58.244Z,10.80
2019-05-15T23:34:28.096Z,10.70
2019-05-15T23:36:58.674Z,10.70
2019-05-15T23:39:29.090Z,10.70
2019-05-15T23:41:59.448Z,10.70
2019-05-15T23:44:29.804Z,10.70
2019-05-15T23:47:00.157Z,10.60
2019-05-15T23:49:30.490Z,10.60
2019-05-15T23:52:02.359Z,10.60
2019-05-15T23:54:32.742Z,10.60
2019-05-15T23:57:09.458Z,10.50
2019-05-15T23:59:39.895Z,10.60
